<?xml version="1.0" encoding="UTF-8" standalone="no" ?>
<gpx xmlns="http://www.topografix.com/GPX/1/1" xmlns:xsi="http://www.w3.org/2001/XMLSchema-instance" xsi:schemaLocation="http://www.topografix.com/GPX/1/1 http://www.topografix.com/GPX/1/1/gpx.xsd" version="1.1" creator="VisuGPX - https://www.visugpx.com">
  <metadata>
    <name>2022-01-16-46-trespoux</name>
    <desc><![CDATA[Randonnée de 11km pour 300 m de dénivelé positif. Une belle balade sur un sentier étroit entre sous bois de sapin et chênes. Un peu de hors pisteet une remontée vers Trespoux longue mais régulière. ]]></desc>
  </metadata>
  <trk>
    <name><![CDATA[14121550-trespoux 14/22]]></name>
    <extensions>
      <line xmlns="http://www.topografix.com/GPX/gpx_style/0/2">
        <color>0000FF</color>
        <width>4</width>
      </line>
    </extensions>
    <trkseg>
      <trkpt lat="44.41521" lon="1.37069">
        <ele>334</ele>
        <time>2022-01-13T08:49:09Z</time>
      </trkpt>
      <trkpt lat="44.41617" lon="1.37177">
        <ele>324</ele>
        <time>2022-01-13T08:50:48Z</time>
      </trkpt>
      <trkpt lat="44.41494" lon="1.37441">
        <ele>330</ele>
        <time>2022-01-13T08:53:48Z</time>
      </trkpt>
      <trkpt lat="44.41566" lon="1.37482">
        <ele>323.4</ele>
      </trkpt>
      <trkpt lat="44.41654" lon="1.37493">
        <ele>316</ele>
        <time>2022-01-13T08:55:59Z</time>
      </trkpt>
      <trkpt lat="44.4175" lon="1.37475">
        <ele>312.9</ele>
      </trkpt>
      <trkpt lat="44.41733" lon="1.37622">
        <ele>304.7</ele>
      </trkpt>
      <trkpt lat="44.41732" lon="1.37643">
        <ele>302.6</ele>
      </trkpt>
      <trkpt lat="44.41741" lon="1.37664">
        <ele>301.2</ele>
      </trkpt>
      <trkpt lat="44.41729" lon="1.37713">
        <ele>286.2</ele>
      </trkpt>
      <trkpt lat="44.41706" lon="1.37755">
        <ele>289.8</ele>
      </trkpt>
      <trkpt lat="44.41692" lon="1.37778">
        <ele>297.4</ele>
      </trkpt>
      <trkpt lat="44.41686" lon="1.37805">
        <ele>299.1</ele>
      </trkpt>
      <trkpt lat="44.41705" lon="1.3783">
        <ele>294.6</ele>
      </trkpt>
      <trkpt lat="44.41698" lon="1.37854">
        <ele>294.4</ele>
      </trkpt>
      <trkpt lat="44.41688" lon="1.37873">
        <ele>291.6</ele>
      </trkpt>
      <trkpt lat="44.41665" lon="1.37879">
        <ele>290.8</ele>
      </trkpt>
      <trkpt lat="44.41673" lon="1.37919">
        <ele>278.7</ele>
      </trkpt>
      <trkpt lat="44.41703" lon="1.37927">
        <ele>277</ele>
      </trkpt>
      <trkpt lat="44.41725" lon="1.37937">
        <ele>274.7</ele>
      </trkpt>
      <trkpt lat="44.41738" lon="1.37946">
        <ele>272.5</ele>
        <time>2022-01-13T08:58:15Z</time>
      </trkpt>
      <trkpt lat="44.41815" lon="1.37941">
        <ele>266.3</ele>
      </trkpt>
      <trkpt lat="44.41889" lon="1.37905">
        <ele>259.3</ele>
      </trkpt>
      <trkpt lat="44.41974" lon="1.37796">
        <ele>249.7</ele>
        <time>2022-01-13T09:00:47Z</time>
      </trkpt>
      <trkpt lat="44.42088" lon="1.37742">
        <ele>241.8</ele>
        <time>2022-01-13T09:02:19Z</time>
      </trkpt>
      <trkpt lat="44.42256" lon="1.37823">
        <ele>232.5</ele>
      </trkpt>
      <trkpt lat="44.42341" lon="1.37774">
        <ele>227.4</ele>
        <time>2022-01-13T09:04:43Z</time>
      </trkpt>
      <trkpt lat="44.42517" lon="1.37691">
        <ele>217.7</ele>
      </trkpt>
      <trkpt lat="44.42624" lon="1.3756">
        <ele>209.3</ele>
        <time>2022-01-13T09:08:57Z</time>
      </trkpt>
      <trkpt lat="44.42694" lon="1.37529">
        <ele>206.2</ele>
      </trkpt>
      <trkpt lat="44.42813" lon="1.37578">
        <ele>202.4</ele>
      </trkpt>
      <trkpt lat="44.42918" lon="1.37747">
        <ele>196.9</ele>
      </trkpt>
      <trkpt lat="44.42954" lon="1.37728">
        <ele>196.4</ele>
      </trkpt>
      <trkpt lat="44.43043" lon="1.3764">
        <ele>193.4</ele>
      </trkpt>
      <trkpt lat="44.43097" lon="1.37611">
        <ele>191</ele>
      </trkpt>
      <trkpt lat="44.4313" lon="1.37616">
        <ele>191.6</ele>
        <time>2022-01-13T09:14:10Z</time>
      </trkpt>
      <trkpt lat="44.43187" lon="1.37527">
        <ele>202</ele>
        <time>2022-01-13T09:16:33Z</time>
      </trkpt>
      <trkpt lat="44.43281" lon="1.37458">
        <ele>187.8</ele>
      </trkpt>
      <trkpt lat="44.43385" lon="1.37401">
        <ele>183.4</ele>
      </trkpt>
      <trkpt lat="44.43465" lon="1.37348">
        <ele>182.5</ele>
      </trkpt>
      <trkpt lat="44.43519" lon="1.3733">
        <ele>186</ele>
        <time>2022-01-13T09:21:22Z</time>
      </trkpt>
      <trkpt lat="44.43576" lon="1.37251">
        <ele>180.1</ele>
        <time>2022-01-13T09:22:06Z</time>
      </trkpt>
      <trkpt lat="44.43608" lon="1.37139">
        <ele>179.2</ele>
        <time>2022-01-13T09:23:03Z</time>
      </trkpt>
      <trkpt lat="44.43647" lon="1.37008">
        <ele>174.1</ele>
        <time>2022-01-13T09:24:42Z</time>
      </trkpt>
      <trkpt lat="44.43632" lon="1.36945">
        <ele>173</ele>
        <time>2022-01-13T09:25:47Z</time>
      </trkpt>
      <trkpt lat="44.43606" lon="1.36814">
        <ele>172</ele>
        <time>2022-01-13T09:27:20Z</time>
      </trkpt>
      <trkpt lat="44.43633" lon="1.36668">
        <ele>170.8</ele>
      </trkpt>
      <trkpt lat="44.43665" lon="1.36611">
        <ele>170.5</ele>
        <time>2022-01-13T09:28:40Z</time>
      </trkpt>
      <trkpt lat="44.43669" lon="1.36567">
        <ele>172.1</ele>
      </trkpt>
      <trkpt lat="44.43633" lon="1.36525">
        <ele>175.2</ele>
      </trkpt>
      <trkpt lat="44.43667" lon="1.36493">
        <ele>175.8</ele>
      </trkpt>
      <trkpt lat="44.43726" lon="1.36548">
        <ele>169</ele>
      </trkpt>
      <trkpt lat="44.43782" lon="1.36527">
        <ele>166.6</ele>
      </trkpt>
      <trkpt lat="44.43825" lon="1.36349">
        <ele>162</ele>
        <time>2022-01-13T09:32:51Z</time>
      </trkpt>
      <trkpt lat="44.4384" lon="1.36287">
        <ele>162.3</ele>
        <time>2022-01-13T09:34:30Z</time>
      </trkpt>
      <trkpt lat="44.43865" lon="1.3623">
        <ele>161.7</ele>
        <time>2022-01-13T09:36:26Z</time>
      </trkpt>
      <trkpt lat="44.43861" lon="1.36184">
        <ele>164.6</ele>
        <time>2022-01-13T09:37:41Z</time>
      </trkpt>
      <trkpt lat="44.43837" lon="1.3613">
        <ele>167.7</ele>
        <time>2022-01-13T09:40:12Z</time>
      </trkpt>
      <trkpt lat="44.4384" lon="1.36118">
        <ele>169.2</ele>
        <time>2022-01-13T09:41:31Z</time>
      </trkpt>
      <trkpt lat="44.43714" lon="1.35929">
        <ele>184.8</ele>
        <time>2022-01-13T09:43:07Z</time>
      </trkpt>
      <trkpt lat="44.43659" lon="1.35896">
        <ele>190.9</ele>
      </trkpt>
      <trkpt lat="44.43588" lon="1.35892">
        <ele>194.5</ele>
      </trkpt>
      <trkpt lat="44.43531" lon="1.35857">
        <ele>200.4</ele>
      </trkpt>
      <trkpt lat="44.43312" lon="1.35624">
        <ele>264.4</ele>
        <time>2022-01-13T09:47:30Z</time>
      </trkpt>
      <trkpt lat="44.43323" lon="1.35579">
        <ele>262.9</ele>
      </trkpt>
      <trkpt lat="44.43331" lon="1.35514">
        <ele>270.1</ele>
      </trkpt>
      <trkpt lat="44.43338" lon="1.35479">
        <ele>272</ele>
      </trkpt>
      <trkpt lat="44.43357" lon="1.35431">
        <ele>269.8</ele>
      </trkpt>
      <trkpt lat="44.43383" lon="1.35382">
        <ele>263.6</ele>
      </trkpt>
      <trkpt lat="44.43414" lon="1.35359">
        <ele>260.7</ele>
        <time>2022-01-13T09:49:25Z</time>
      </trkpt>
      <trkpt lat="44.43438" lon="1.35303">
        <ele>250</ele>
        <time>2022-01-13T09:53:06Z</time>
      </trkpt>
      <trkpt lat="44.43459" lon="1.35242">
        <ele>234</ele>
        <time>2022-01-13T09:55:36Z</time>
      </trkpt>
      <trkpt lat="44.43461" lon="1.35194">
        <ele>220.8</ele>
        <time>2022-01-13T09:57:12Z</time>
      </trkpt>
      <trkpt lat="44.43446" lon="1.35153">
        <ele>211.9</ele>
        <time>2022-01-13T09:58:48Z</time>
      </trkpt>
      <trkpt lat="44.43412" lon="1.35136">
        <ele>206.2</ele>
        <time>2022-01-13T10:00:43Z</time>
      </trkpt>
      <trkpt lat="44.43284" lon="1.35187">
        <ele>187.3</ele>
        <time>2022-01-13T10:03:17Z</time>
      </trkpt>
      <trkpt lat="44.43103" lon="1.35146">
        <ele>191</ele>
        <time>2022-01-13T10:05:39Z</time>
      </trkpt>
      <trkpt lat="44.42962" lon="1.35298">
        <ele>201</ele>
        <time>2022-01-13T10:08:02Z</time>
      </trkpt>
      <trkpt lat="44.42875" lon="1.35366">
        <ele>202</ele>
        <time>2022-01-13T10:09:21Z</time>
      </trkpt>
      <trkpt lat="44.42721" lon="1.35243">
        <ele>210</ele>
        <time>2022-01-13T10:11:43Z</time>
      </trkpt>
      <trkpt lat="44.42524" lon="1.35285">
        <ele>220</ele>
        <time>2022-01-13T10:14:23Z</time>
      </trkpt>
      <trkpt lat="44.42438" lon="1.35318">
        <ele>224</ele>
        <time>2022-01-13T10:15:34Z</time>
      </trkpt>
      <trkpt lat="44.42295" lon="1.35455">
        <ele>227</ele>
        <time>2022-01-13T10:17:53Z</time>
      </trkpt>
      <trkpt lat="44.42279" lon="1.35494">
        <ele>210.7</ele>
        <time>2022-01-13T10:18:45Z</time>
      </trkpt>
      <trkpt lat="44.42084" lon="1.35439">
        <ele>232</ele>
        <time>2022-01-13T10:20:42Z</time>
      </trkpt>
      <trkpt lat="44.41956" lon="1.35434">
        <ele>239</ele>
        <time>2022-01-13T10:22:25Z</time>
      </trkpt>
      <trkpt lat="44.41851" lon="1.35485">
        <ele>241</ele>
        <time>2022-01-13T10:23:54Z</time>
      </trkpt>
      <trkpt lat="44.41734" lon="1.35635">
        <ele>245</ele>
        <time>2022-01-13T10:26:01Z</time>
      </trkpt>
      <trkpt lat="44.41644" lon="1.35696">
        <ele>237.4</ele>
        <time>2022-01-13T10:32:13Z</time>
      </trkpt>
      <trkpt lat="44.4148" lon="1.35771">
        <ele>248.7</ele>
        <time>2022-01-13T10:34:40Z</time>
      </trkpt>
      <trkpt lat="44.41335" lon="1.35866">
        <ele>254.4</ele>
        <time>2022-01-13T10:36:02Z</time>
      </trkpt>
      <trkpt lat="44.41197" lon="1.36033">
        <ele>269.8</ele>
      </trkpt>
      <trkpt lat="44.41114" lon="1.36186">
        <ele>282.3</ele>
      </trkpt>
      <trkpt lat="44.41166" lon="1.3617">
        <ele>287.4</ele>
      </trkpt>
      <trkpt lat="44.41215" lon="1.36166">
        <ele>297.9</ele>
      </trkpt>
      <trkpt lat="44.41216" lon="1.3611">
        <ele>297</ele>
      </trkpt>
      <trkpt lat="44.41362" lon="1.36065">
        <ele>315.4</ele>
      </trkpt>
      <trkpt lat="44.41389" lon="1.3609">
        <ele>318.5</ele>
      </trkpt>
      <trkpt lat="44.41235" lon="1.36345">
        <ele>325.6</ele>
      </trkpt>
      <trkpt lat="44.41144" lon="1.36499">
        <ele>321.9</ele>
      </trkpt>
      <trkpt lat="44.41226" lon="1.36549">
        <ele>322.6</ele>
      </trkpt>
      <trkpt lat="44.41242" lon="1.3659">
        <ele>321.7</ele>
      </trkpt>
      <trkpt lat="44.4127" lon="1.36632">
        <ele>324.2</ele>
        <time>2022-01-13T10:37:39Z</time>
      </trkpt>
      <trkpt lat="44.41304" lon="1.36702">
        <ele>320</ele>
        <time>2022-01-13T10:38:42Z</time>
      </trkpt>
      <trkpt lat="44.41386" lon="1.37053">
        <ele>331</ele>
        <time>2022-01-13T10:42:13Z</time>
      </trkpt>
      <trkpt lat="44.41492" lon="1.37044">
        <ele>334</ele>
        <time>2022-01-13T10:43:38Z</time>
      </trkpt>
      <trkpt lat="44.4155" lon="1.37122">
        <ele>334</ele>
        <time>2022-01-13T10:44:43Z</time>
      </trkpt>
    </trkseg>
  </trk>
</gpx>